createdAt,value
2019-01-21T00:00:45.729Z,74.82
2019-01-21T00:06:01.141Z,74.64
2019-01-21T00:11:23.312Z,75.11
2019-01-21T00:16:45.483Z,74.59
2019-01-21T00:21:48.157Z,74.23
2019-01-21T00:27:10.450Z,74.22
2019-01-21T00:32:32.656Z,74.59
2019-01-21T00:37:54.838Z,74.64
2019-01-21T00:42:57.499Z,74.25
2019-01-21T00:48:00.155Z,74.19
2019-01-21T00:53:22.330Z,73.88
2019-01-21T00:58:44.509Z,73.67
2019-01-21T01:04:06.695Z,73.60
2019-01-21T01:09:22.126Z,73.69
2019-01-21T01:14:24.862Z,73.68
2019-01-21T01:19:47.070Z,74.03
2019-01-21T01:25:09.410Z,73.72
2019-01-21T01:30:31.613Z,73.26
2019-01-21T01:35:53.803Z,73.84
2019-01-21T01:41:15.979Z,73.99
2019-01-21T01:46:38.158Z,74.12
2019-01-21T01:52:00.965Z,73.98
2019-01-21T01:57:03.825Z,73.97
2019-01-21T02:02:26.000Z,74.08
2019-01-21T02:07:41.430Z,73.68
2019-01-21T02:13:03.943Z,73.55
2019-01-21T02:18:26.121Z,73.26
2019-01-21T02:24:30.639Z,73.98
2019-01-21T02:30:31.823Z,73.80
2019-01-21T02:36:20.605Z,73.04
2019-01-21T02:41:58.929Z,73.56
2019-01-21T02:48:00.058Z,73.70
2019-01-21T02:53:57.403Z,73.48
2019-01-21T02:59:46.053Z,73.57
2019-01-21T03:05:07.080Z,73.34
2019-01-21T03:11:02.511Z,73.75
2019-01-21T03:16:44.184Z,74.28
2019-01-21T03:22:52.342Z,74.85
2019-01-21T03:35:15.753Z,74.96
2019-01-21T03:53:30.763Z,74.64
2019-01-21T03:59:24.907Z,74.44
2019-01-21T04:05:26.244Z,74.21
2019-01-21T04:17:49.715Z,74.56
2019-01-21T04:23:50.884Z,74.79
2019-01-21T04:29:52.067Z,74.74
2019-01-21T04:35:53.278Z,74.30
2019-01-21T04:41:54.536Z,74.23
2019-01-21T04:47:55.711Z,73.64
2019-01-21T04:53:56.889Z,73.72
2019-01-21T04:59:58.104Z,73.62
2019-01-21T05:05:32.518Z,74.00
2019-01-21T05:11:40.886Z,74.16
2019-01-21T05:17:45.207Z,74.20
2019-01-21T05:23:23.884Z,74.36
2019-01-21T05:29:25.079Z,74.25
2019-01-21T05:35:26.265Z,74.62
2019-01-21T05:41:27.468Z,74.74
2019-01-21T05:47:28.642Z,74.96
2019-01-21T05:53:42.289Z,74.72
2019-01-21T05:59:43.468Z,74.93
2019-01-21T06:05:44.683Z,74.50
2019-01-21T06:11:29.350Z,74.50
2019-01-21T06:17:19.193Z,74.19
2019-01-21T06:23:20.568Z,74.15
2019-01-21T06:29:07.949Z,73.82
2019-01-21T06:35:09.137Z,73.96
2019-01-21T06:40:57.008Z,74.12
2019-01-21T06:53:20.038Z,73.74
2019-01-21T07:05:35.506Z,74.15
2019-01-21T07:11:23.239Z,74.03
2019-01-21T07:17:24.697Z,73.62
2019-01-21T07:23:25.895Z,73.67
2019-01-21T07:29:14.701Z,73.67
2019-01-21T07:35:15.867Z,73.59
2019-01-21T07:41:17.055Z,73.28
2019-01-21T07:47:18.212Z,73.15
2019-01-21T07:53:26.156Z,73.12
2019-01-21T07:59:27.325Z,73.86
2019-01-21T08:05:28.614Z,74.96
2019-01-21T08:11:31.293Z,75.01
2019-01-21T08:17:32.459Z,75.65
2019-01-21T08:23:23.943Z,75.86
2019-01-21T08:29:09.188Z,76.05
2019-01-21T08:35:10.374Z,76.07
2019-01-21T08:40:43.325Z,75.82
2019-01-21T08:46:44.519Z,76.43
2019-01-21T08:52:33.777Z,76.65
2019-01-21T08:58:35.019Z,76.67
2019-01-21T09:04:36.205Z,76.73
2019-01-21T09:10:11.208Z,76.71
2019-01-21T09:16:00.659Z,76.61
2019-01-21T09:22:01.828Z,76.60
2019-01-21T09:28:03.042Z,76.29
2019-01-21T09:34:04.212Z,75.99
2019-01-21T09:39:50.155Z,75.71
2019-01-21T09:45:54.131Z,75.38
2019-01-21T09:51:16.411Z,75.18
2019-01-21T09:56:39.064Z,74.78
2019-01-21T10:02:44.226Z,74.44
2019-01-21T10:08:19.107Z,74.37
2019-01-21T10:14:20.294Z,73.78
2019-01-21T10:20:06.132Z,73.42
2019-01-21T10:25:48.728Z,72.91
2019-01-21T10:31:49.932Z,71.76
2019-01-21T10:37:51.126Z,71.23
2019-01-21T10:43:52.337Z,71.45
2019-01-21T10:49:47.209Z,70.95
2019-01-21T10:55:36.884Z,70.42
2019-01-21T11:01:38.069Z,70.19
2019-01-21T11:07:16.004Z,69.32
2019-01-21T11:13:17.193Z,68.61
2019-01-21T11:19:01.458Z,68.32
2019-01-21T11:25:02.631Z,67.76
2019-01-21T11:31:03.865Z,67.21
2019-01-21T11:37:05.027Z,67.43
2019-01-21T11:43:06.237Z,67.00
2019-01-21T11:49:07.464Z,66.51
2019-01-21T11:54:56.554Z,65.82
2019-01-21T12:00:58.277Z,65.81
2019-01-21T12:06:24.124Z,64.90
2019-01-21T12:12:01.315Z,65.35
2019-01-21T12:18:02.530Z,64.50
2019-01-21T12:24:04.146Z,63.95
2019-01-21T12:30:05.657Z,63.69
2019-01-21T12:36:07.054Z,63.40
2019-01-21T12:42:08.290Z,63.05
2019-01-21T12:47:56.865Z,62.54
2019-01-21T12:53:58.115Z,62.35
2019-01-21T13:05:49.177Z,62.14
2019-01-21T13:11:38.379Z,62.00
2019-01-21T13:17:39.615Z,61.93
2019-01-21T13:23:40.820Z,61.36
2019-01-21T13:29:25.088Z,61.71
2019-01-21T13:35:19.321Z,61.61
2019-01-21T13:41:23.291Z,61.05
2019-01-21T13:47:24.477Z,61.45
2019-01-21T13:53:25.694Z,61.06
2019-01-21T13:59:26.873Z,61.03
2019-01-21T14:05:31.145Z,60.49
2019-01-21T14:11:31.234Z,59.68
2019-01-21T14:17:32.397Z,58.83
2019-01-21T14:23:33.602Z,58.86
2019-01-21T14:29:22.051Z,59.21
2019-01-21T14:35:23.231Z,59.93
2019-01-21T14:41:24.424Z,60.69
2019-01-21T14:47:11.118Z,61.57
2019-01-21T14:53:03.387Z,61.04
2019-01-21T14:59:04.585Z,59.71
2019-01-21T15:04:38.749Z,60.43
2019-01-21T15:10:13.205Z,60.50
2019-01-21T15:16:02.326Z,60.52
2019-01-21T15:21:48.267Z,61.81
2019-01-21T15:27:52.298Z,62.11
2019-01-21T15:33:53.577Z,62.01
2019-01-21T15:39:38.554Z,62.21
2019-01-21T15:45:25.328Z,62.75
2019-01-21T15:51:05.106Z,63.45
2019-01-21T15:56:50.175Z,64.02
2019-01-21T16:02:39.069Z,64.15
2019-01-21T16:08:06.993Z,64.30
2019-01-21T16:14:12.552Z,64.39
2019-01-21T16:19:56.012Z,64.57
2019-01-21T16:25:57.229Z,65.25
2019-01-21T16:31:33.927Z,65.96
2019-01-21T16:37:35.104Z,66.30
2019-01-21T16:42:57.293Z,65.98
2019-01-21T16:48:19.540Z,65.98
2019-01-21T16:53:41.744Z,66.20
2019-01-21T17:04:36.031Z,66.50
2019-01-21T17:09:50.920Z,66.56
2019-01-21T17:15:13.238Z,66.36
2019-01-21T17:20:18.841Z,66.10
2019-01-21T17:25:41.053Z,65.92
2019-01-21T17:31:03.270Z,65.76
2019-01-21T17:36:25.473Z,65.75
2019-01-21T17:58:13.294Z,65.58
2019-01-21T18:08:56.990Z,65.22
2019-01-21T18:14:19.165Z,65.42
2019-01-21T18:19:41.447Z,65.13
2019-01-21T18:25:04.472Z,65.24
2019-01-21T18:30:27.176Z,65.62
2019-01-21T18:35:49.366Z,65.53
2019-01-21T18:41:11.788Z,65.39
2019-01-21T18:46:34.033Z,65.00
2019-01-21T18:51:36.697Z,65.12
2019-01-21T18:56:58.880Z,65.42
2019-01-21T19:02:01.621Z,65.43
2019-01-21T19:07:17.552Z,65.47
2019-01-21T19:12:39.842Z,65.36
2019-01-21T19:18:24.776Z,65.21
2019-01-21T19:23:47.301Z,65.15
2019-01-21T19:29:09.478Z,65.22
2019-01-21T19:34:31.706Z,66.09
2019-01-21T19:39:34.393Z,66.78
2019-01-21T19:44:37.312Z,67.30
2019-01-21T19:49:39.993Z,68.11
2019-01-21T19:55:02.219Z,68.75
2019-01-21T20:00:25.696Z,69.24
2019-01-21T20:05:41.070Z,69.30
2019-01-21T20:11:03.298Z,69.19
2019-01-21T20:16:25.537Z,69.42
2019-01-21T20:21:47.741Z,68.74
2019-01-21T20:27:09.933Z,68.05
2019-01-21T20:32:32.126Z,67.68
2019-01-21T20:37:54.368Z,67.35
2019-01-21T20:43:16.542Z,67.27
2019-01-21T20:48:38.739Z,67.38
2019-01-21T20:54:02.334Z,67.42
2019-01-21T20:59:25.905Z,67.34
2019-01-21T21:04:49.311Z,67.19
2019-01-21T21:09:53.276Z,66.93
2019-01-21T21:15:17.913Z,66.58
2019-01-21T21:20:40.955Z,66.48
2019-01-21T21:26:04.674Z,66.43
2019-01-21T21:31:29.907Z,66.41
2019-01-21T21:36:52.885Z,66.32
2019-01-21T21:42:16.569Z,66.22
2019-01-21T21:47:19.396Z,66.70
2019-01-21T21:52:27.816Z,66.66
2019-01-21T21:57:26.667Z,66.90
2019-01-21T22:02:29.354Z,66.61
2019-01-21T22:07:44.499Z,66.50
2019-01-21T22:12:47.306Z,66.46
2019-01-21T22:18:09.603Z,66.18
2019-01-21T22:23:31.788Z,66.10
2019-01-21T22:28:53.987Z,65.73
2019-01-21T22:33:56.659Z,65.65
2019-01-21T22:39:18.825Z,65.23
2019-01-21T22:44:41.019Z,64.99
2019-01-21T22:50:04.252Z,64.58
2019-01-21T22:55:26.587Z,64.62
2019-01-21T23:01:27.888Z,64.39
2019-01-21T23:06:43.553Z,64.21
2019-01-21T23:12:05.748Z,64.10
2019-01-21T23:17:28.091Z,64.10
2019-01-21T23:22:50.299Z,63.93
2019-01-21T23:28:12.513Z,63.70
2019-01-21T23:33:34.713Z,63.59
2019-01-21T23:38:56.909Z,63.62
2019-01-21T23:43:59.685Z,63.40
2019-01-21T23:49:02.581Z,63.71
2019-01-21T23:54:25.204Z,63.74
2019-01-21T23:59:47.400Z,63.66
